createdAt,value
2022-09-21T00:01:26.732Z,92.01
2022-09-21T00:04:29.407Z,91.72
2022-09-21T00:07:32.205Z,91.73
2022-09-21T00:10:35.433Z,92.12
2022-09-21T00:13:39.607Z,91.93
2022-09-21T00:16:43.489Z,91.86
2022-09-21T00:19:46.430Z,92.56
2022-09-21T00:22:49.244Z,92.39
2022-09-21T00:25:51.849Z,92.79
2022-09-21T00:28:57.438Z,92.85
2022-09-21T00:32:00.155Z,93.15
2022-09-21T00:35:03.907Z,93.47
2022-09-21T00:38:06.463Z,93.99
2022-09-21T00:41:10.804Z,93.69
2022-09-21T00:44:36.161Z,93.53
2022-09-21T00:47:41.824Z,93.70
2022-09-21T00:50:48.724Z,93.81
2022-09-21T00:53:55.231Z,93.79
2022-09-21T00:57:03.023Z,94.59
2022-09-21T01:00:09.646Z,94.48
2022-09-21T01:03:13.701Z,94.17
2022-09-21T01:06:18.295Z,94.55
2022-09-21T01:09:20.988Z,94.16
2022-09-21T01:12:34.021Z,93.99
2022-09-21T01:15:41.525Z,94.07
2022-09-21T01:18:47.958Z,94.06
2022-09-21T01:21:56.353Z,94.11
2022-09-21T01:25:08.895Z,94.10
2022-09-21T01:28:24.501Z,94.39
2022-09-21T01:31:35.224Z,93.86
2022-09-21T01:34:43.025Z,95.01
2022-09-21T01:37:48.683Z,94.88
2022-09-21T01:40:53.974Z,94.79
2022-09-21T01:44:00.626Z,94.67
2022-09-21T01:47:07.879Z,94.72
2022-09-21T01:50:12.199Z,94.03
2022-09-21T01:53:19.377Z,94.35
2022-09-21T01:56:26.054Z,94.42
2022-09-21T01:59:32.665Z,94.86
2022-09-21T02:02:39.730Z,94.37
2022-09-21T02:05:42.867Z,94.53
2022-09-21T02:08:46.179Z,94.56
2022-09-21T02:11:48.797Z,94.77
2022-09-21T02:14:55.526Z,94.72
2022-09-21T02:18:05.572Z,94.70
2022-09-21T02:21:13.858Z,95.10
2022-09-21T02:24:24.928Z,95.58
2022-09-21T02:27:33.228Z,95.15
2022-09-21T02:30:36.744Z,95.02
2022-09-21T02:33:45.663Z,95.31
2022-09-21T02:36:51.217Z,95.25
2022-09-21T02:40:00.505Z,95.22
2022-09-21T02:43:07.355Z,95.14
2022-09-21T02:46:14.837Z,95.18
2022-09-21T02:49:20.965Z,94.89
2022-09-21T02:52:23.989Z,95.44
2022-09-21T02:55:27.310Z,95.50
2022-09-21T02:58:31.539Z,95.92
2022-09-21T03:01:34.918Z,95.27
2022-09-21T03:04:40.100Z,94.94
2022-09-21T03:07:42.955Z,95.46
2022-09-21T03:10:46.740Z,95.34
2022-09-21T03:13:49.203Z,96.13
2022-09-21T03:16:51.873Z,95.65
2022-09-21T03:19:56.581Z,95.39
2022-09-21T03:22:59.091Z,95.76
2022-09-21T03:26:02.495Z,95.79
2022-09-21T03:29:05.653Z,95.63
2022-09-21T03:32:08.480Z,95.29
2022-09-21T03:35:12.340Z,95.44
2022-09-21T03:38:15.172Z,95.49
2022-09-21T03:41:18.941Z,95.24
2022-09-21T03:44:21.782Z,95.28
2022-09-21T03:47:24.570Z,95.40
2022-09-21T03:50:29.475Z,95.60
2022-09-21T03:53:32.157Z,95.54
2022-09-21T03:56:34.989Z,95.95
2022-09-21T03:59:37.701Z,96.44
2022-09-21T04:02:41.018Z,96.42
2022-09-21T04:05:44.982Z,95.92
2022-09-21T04:08:47.760Z,96.62
2022-09-21T04:11:50.333Z,97.03
2022-09-21T04:14:53.024Z,96.41
2022-09-21T04:17:55.645Z,96.10
2022-09-21T04:21:00.746Z,96.10
2022-09-21T04:24:04.165Z,96.12
2022-09-21T04:27:06.868Z,96.22
2022-09-21T04:30:12.258Z,96.01
2022-09-21T04:33:15.291Z,95.61
2022-09-21T04:36:20.066Z,95.89
2022-09-21T04:39:24.110Z,95.79
2022-09-21T04:42:27.563Z,95.96
2022-09-21T04:45:30.144Z,95.99
2022-09-21T04:48:32.823Z,95.11
2022-09-21T04:51:36.855Z,95.71
2022-09-21T04:54:39.580Z,95.87
2022-09-21T04:57:42.415Z,95.99
2022-09-21T05:00:45.093Z,95.96
2022-09-21T05:03:47.990Z,96.40
2022-09-21T05:06:51.948Z,96.46
2022-09-21T05:10:05.259Z,96.27
2022-09-21T05:13:07.936Z,96.09
2022-09-21T05:16:10.989Z,96.13
2022-09-21T05:19:13.652Z,96.21
2022-09-21T05:22:17.993Z,96.35
2022-09-21T05:25:20.700Z,96.09
2022-09-21T05:28:24.182Z,96.41
2022-09-21T05:31:33.124Z,96.23
2022-09-21T05:34:42.952Z,96.11
2022-09-21T05:37:49.956Z,96.34
2022-09-21T05:40:53.550Z,96.21
2022-09-21T05:43:56.718Z,95.68
2022-09-21T05:47:02.781Z,95.62
2022-09-21T05:50:18.418Z,95.81
2022-09-21T05:53:43.389Z,95.01
2022-09-21T05:56:50.357Z,95.48
2022-09-21T06:00:02.674Z,95.75
2022-09-21T06:03:27.351Z,94.93
2022-09-21T06:06:30.061Z,94.85
2022-09-21T06:09:34.073Z,94.52
2022-09-21T06:12:36.795Z,95.01
2022-09-21T06:15:40.206Z,95.35
2022-09-21T06:18:43.315Z,95.23
2022-09-21T06:21:46.373Z,95.39
2022-09-21T06:24:50.648Z,94.75
2022-09-21T06:27:53.304Z,95.19
2022-09-21T06:30:57.275Z,94.66
2022-09-21T06:34:00.260Z,94.01
2022-09-21T06:37:03.279Z,93.06
2022-09-21T06:40:09.312Z,92.45
2022-09-21T06:43:12.056Z,92.36
2022-09-21T06:46:14.914Z,92.27
2022-09-21T06:49:17.783Z,92.16
2022-09-21T06:52:20.393Z,91.59
2022-09-21T06:55:24.397Z,91.79
2022-09-21T06:58:27.054Z,91.00
2022-09-21T07:01:29.716Z,90.37
2022-09-21T07:04:32.587Z,90.31
2022-09-21T07:07:36.451Z,90.55
2022-09-21T07:10:40.908Z,89.15
2022-09-21T07:13:44.093Z,89.00
2022-09-21T07:16:47.094Z,87.53
2022-09-21T07:19:50.496Z,87.23
2022-09-21T07:22:53.112Z,85.28
2022-09-21T07:25:57.295Z,84.53
2022-09-21T07:29:00.061Z,82.94
2022-09-21T07:32:03.099Z,82.63
2022-09-21T07:35:07.195Z,81.29
2022-09-21T07:38:09.841Z,81.75
2022-09-21T07:41:14.759Z,79.80
2022-09-21T07:44:17.511Z,79.43
2022-09-21T07:47:20.070Z,78.79
2022-09-21T07:50:23.048Z,77.39
2022-09-21T07:53:26.313Z,75.54
2022-09-21T07:56:30.607Z,75.02
2022-09-21T07:59:32.822Z,73.93
2022-09-21T08:02:35.724Z,73.06
2022-09-21T08:05:38.337Z,72.36
2022-09-21T08:08:41.713Z,71.38
2022-09-21T08:11:47.124Z,71.05
2022-09-21T08:14:50.127Z,71.05
2022-09-21T08:17:53.031Z,70.39
2022-09-21T08:20:56.211Z,69.67
2022-09-21T08:23:58.824Z,68.69
2022-09-21T08:27:02.961Z,67.81
2022-09-21T08:30:06.534Z,68.00
2022-09-21T08:33:09.240Z,67.61
2022-09-21T08:36:11.985Z,66.07
2022-09-21T08:39:14.676Z,65.88
2022-09-21T08:42:34.252Z,66.27
2022-09-21T08:45:41.057Z,65.71
2022-09-21T08:48:47.242Z,65.51
2022-09-21T08:51:54.619Z,64.95
2022-09-21T08:55:00.235Z,64.90
2022-09-21T08:58:04.256Z,64.78
2022-09-21T09:01:21.692Z,64.05
2022-09-21T09:04:30.812Z,64.74
2022-09-21T09:07:49.977Z,63.90
2022-09-21T09:11:00.037Z,62.88
2022-09-21T09:14:15.751Z,62.65
2022-09-21T09:17:31.755Z,61.28
2022-09-21T09:20:37.977Z,61.06
2022-09-21T09:23:44.773Z,60.83
2022-09-21T09:26:50.787Z,60.34
2022-09-21T09:30:02.800Z,60.23
2022-09-21T09:33:12.672Z,58.81
2022-09-21T09:36:15.275Z,58.86
2022-09-21T09:39:18.207Z,58.15
2022-09-21T09:42:34.465Z,57.47
2022-09-21T09:45:49.152Z,56.46
2022-09-21T09:49:07.253Z,55.61
2022-09-21T09:52:11.110Z,56.41
2022-09-21T09:55:20.259Z,54.88
2022-09-21T09:58:25.002Z,54.57
2022-09-21T10:01:42.701Z,54.33
2022-09-21T10:04:56.475Z,53.07
2022-09-21T10:07:59.944Z,53.04
2022-09-21T10:11:03.003Z,51.83
2022-09-21T10:14:09.327Z,51.27
2022-09-21T10:17:17.692Z,49.75
2022-09-21T10:20:21.274Z,48.56
2022-09-21T10:23:24.566Z,49.86
2022-09-21T10:26:32.092Z,50.02
2022-09-21T10:29:42.484Z,48.25
2022-09-21T10:32:56.749Z,48.03
2022-09-21T10:35:59.657Z,47.06
2022-09-21T10:39:20.590Z,46.18
2022-09-21T10:42:23.325Z,45.47
2022-09-21T10:45:27.441Z,46.05
2022-09-21T10:48:31.475Z,46.03
2022-09-21T10:51:34.948Z,46.42
2022-09-21T10:54:37.521Z,46.04
2022-09-21T10:57:42.860Z,45.95
2022-09-21T11:00:47.811Z,45.25
2022-09-21T11:03:56.839Z,43.92
2022-09-21T11:07:04.541Z,42.73
2022-09-21T11:10:14.289Z,41.97
2022-09-21T11:13:25.293Z,41.91
2022-09-21T11:16:32.676Z,42.19
2022-09-21T11:19:41.105Z,41.44
2022-09-21T11:22:56.711Z,40.35
2022-09-21T11:26:05.704Z,40.78
2022-09-21T11:29:13.462Z,40.15
2022-09-21T11:32:36.096Z,39.50
2022-09-21T11:35:48.037Z,39.82
2022-09-21T11:38:58.091Z,41.25
2022-09-21T11:42:12.015Z,42.44
2022-09-21T11:45:27.337Z,42.39
2022-09-21T11:48:40.241Z,42.39
2022-09-21T11:51:57.393Z,42.76
2022-09-21T11:55:14.181Z,42.81
2022-09-21T11:58:24.815Z,41.37
2022-09-21T12:01:41.190Z,40.28
2022-09-21T12:04:50.505Z,39.43
2022-09-21T12:08:14.965Z,39.68
2022-09-21T12:11:27.054Z,38.99
2022-09-21T12:14:34.570Z,38.19
2022-09-21T12:17:49.510Z,38.51
2022-09-21T12:20:59.078Z,39.26
2022-09-21T12:24:08.278Z,39.05
2022-09-21T12:27:15.491Z,38.63
2022-09-21T12:30:20.752Z,39.46
2022-09-21T12:33:28.680Z,38.95
2022-09-21T12:36:39.488Z,38.59
2022-09-21T12:39:48.760Z,37.02
2022-09-21T12:42:55.489Z,35.89
2022-09-21T12:45:59.733Z,35.00
2022-09-21T12:49:03.282Z,26.66
2022-09-21T12:52:08.669Z,18.26
2022-09-21T12:55:29.394Z,15.81
2022-09-21T12:58:44.146Z,13.73
2022-09-21T13:01:53.414Z,14.35
2022-09-21T13:05:06.106Z,21.45
2022-09-21T13:08:12.254Z,26.44
2022-09-21T13:11:21.364Z,30.15
2022-09-21T13:14:25.341Z,32.89
2022-09-21T13:17:30.778Z,26.86
2022-09-21T13:20:38.343Z,17.39
2022-09-21T13:23:42.348Z,14.21
2022-09-21T13:26:56.823Z,13.46
2022-09-21T13:30:22.714Z,23.13
2022-09-21T13:33:34.263Z,28.54
2022-09-21T13:36:37.463Z,29.29
2022-09-21T13:39:43.986Z,18.39
2022-09-21T13:42:49.964Z,15.14
2022-09-21T13:45:58.292Z,18.27
2022-09-21T13:49:04.698Z,15.70
2022-09-21T13:52:17.011Z,12.17
2022-09-21T13:55:25.472Z,12.65
2022-09-21T13:58:32.808Z,11.57
2022-09-21T14:01:52.384Z,10.65
2022-09-21T14:04:55.825Z,10.16
2022-09-21T14:08:00.427Z,11.11
2022-09-21T14:11:05.724Z,15.83
2022-09-21T14:14:18.361Z,19.34
2022-09-21T14:17:37.868Z,12.85
2022-09-21T14:20:40.509Z,10.17
2022-09-21T14:23:43.432Z,10.05
2022-09-21T14:26:55.751Z,10.01
2022-09-21T14:30:06.310Z,10.93
2022-09-21T14:33:22.209Z,10.21
2022-09-21T14:36:31.112Z,15.88
2022-09-21T14:39:36.354Z,21.63
2022-09-21T14:42:40.622Z,25.35
2022-09-21T14:45:57.045Z,23.59
2022-09-21T14:49:09.091Z,14.63
2022-09-21T14:52:29.101Z,11.53
2022-09-21T14:55:43.845Z,10.39
2022-09-21T14:58:56.508Z,10.38
2022-09-21T15:02:03.454Z,10.09
2022-09-21T15:05:15.332Z,9.91
2022-09-21T15:08:51.830Z,9.04
2022-09-21T15:12:00.204Z,8.60
2022-09-21T15:15:23.041Z,7.99
2022-09-21T15:18:26.925Z,7.87
2022-09-21T15:21:32.909Z,9.00
2022-09-21T15:24:35.571Z,10.07
2022-09-21T15:27:38.038Z,10.52
2022-09-21T15:30:45.825Z,11.04
2022-09-21T15:33:52.328Z,9.80
2022-09-21T15:36:55.450Z,10.06
2022-09-21T15:40:02.093Z,10.55
2022-09-21T15:43:06.929Z,11.31
2022-09-21T15:46:12.550Z,10.87
2022-09-21T15:49:22.033Z,10.14
2022-09-21T15:52:29.803Z,9.98
2022-09-21T15:55:34.177Z,9.67
2022-09-21T15:58:38.205Z,10.07
2022-09-21T16:01:42.732Z,10.09
2022-09-21T16:04:50.027Z,11.70
2022-09-21T16:08:06.395Z,11.46
2022-09-21T16:11:15.004Z,10.67
2022-09-21T16:14:36.095Z,10.73
2022-09-21T16:17:39.234Z,11.28
2022-09-21T16:20:45.718Z,12.40
2022-09-21T16:23:49.445Z,12.93
2022-09-21T16:26:58.048Z,17.54
2022-09-21T16:30:01.200Z,23.49
2022-09-21T16:33:05.920Z,27.66
2022-09-21T16:36:38.136Z,31.14
2022-09-21T16:39:42.712Z,33.25
2022-09-21T16:42:46.553Z,34.79
2022-09-21T16:45:49.229Z,36.14
2022-09-21T16:48:53.812Z,37.68
2022-09-21T16:51:58.441Z,37.77
2022-09-21T16:55:01.248Z,38.58
2022-09-21T16:58:03.762Z,38.77
2022-09-21T17:01:06.584Z,40.03
2022-09-21T17:04:11.113Z,41.66
2022-09-21T17:07:16.740Z,42.07
2022-09-21T17:10:19.771Z,44.02
2022-09-21T17:13:22.592Z,44.39
2022-09-21T17:16:25.375Z,45.51
2022-09-21T17:19:28.070Z,46.03
2022-09-21T17:22:32.048Z,46.54
2022-09-21T17:25:36.402Z,48.42
2022-09-21T17:28:39.781Z,49.29
2022-09-21T17:31:42.456Z,50.85
2022-09-21T17:34:46.060Z,51.19
2022-09-21T17:37:50.087Z,52.01
2022-09-21T17:40:53.678Z,53.04
2022-09-21T17:44:02.402Z,53.07
2022-09-21T17:47:12.116Z,55.27
2022-09-21T17:50:20.788Z,55.65
2022-09-21T17:53:37.485Z,55.84
2022-09-21T17:56:45.118Z,56.60
2022-09-21T17:59:51.868Z,56.91
2022-09-21T18:02:55.222Z,56.95
2022-09-21T18:06:00.776Z,57.84
2022-09-21T18:09:05.685Z,58.72
2022-09-21T18:12:26.990Z,59.00
2022-09-21T18:15:37.545Z,59.33
2022-09-21T18:18:45.307Z,60.42
2022-09-21T18:21:50.608Z,60.60
2022-09-21T18:24:56.722Z,61.24
2022-09-21T18:28:02.440Z,61.36
2022-09-21T18:31:18.370Z,61.55
2022-09-21T18:34:41.470Z,61.97
2022-09-21T18:37:55.235Z,62.56
2022-09-21T18:41:14.314Z,62.44
2022-09-21T18:44:23.912Z,63.05
2022-09-21T18:47:32.729Z,62.96
2022-09-21T18:50:39.995Z,63.15
2022-09-21T18:53:47.174Z,63.45
2022-09-21T18:56:51.344Z,63.26
2022-09-21T18:59:54.669Z,63.09
2022-09-21T19:03:15.966Z,63.60
2022-09-21T19:06:29.417Z,64.16
2022-09-21T19:09:39.362Z,64.65
2022-09-21T19:13:03.745Z,64.73
2022-09-21T19:16:18.938Z,65.00
2022-09-21T19:19:30.907Z,65.14
2022-09-21T19:22:41.732Z,65.56
2022-09-21T19:25:49.997Z,65.63
2022-09-21T19:29:13.676Z,65.28
2022-09-21T19:32:18.230Z,65.73
2022-09-21T19:35:24.211Z,66.21
2022-09-21T19:38:28.533Z,67.11
2022-09-21T19:41:38.144Z,67.60
2022-09-21T19:44:58.879Z,68.05
2022-09-21T19:48:04.996Z,67.70
2022-09-21T19:51:15.630Z,68.25
2022-09-21T19:54:37.760Z,68.39
2022-09-21T19:57:58.748Z,68.54
2022-09-21T20:01:03.649Z,68.91
2022-09-21T20:04:07.344Z,69.00
2022-09-21T20:07:14.999Z,69.25
2022-09-21T20:10:43.202Z,69.62
2022-09-21T20:14:06.287Z,69.90
2022-09-21T20:17:13.425Z,70.52
2022-09-21T20:20:19.946Z,70.83
2022-09-21T20:23:23.067Z,71.36
2022-09-21T20:26:27.420Z,71.47
2022-09-21T20:29:30.091Z,72.05
2022-09-21T20:32:34.520Z,72.21
2022-09-21T20:35:37.216Z,71.99
2022-09-21T20:38:39.859Z,72.15
2022-09-21T20:41:42.439Z,72.87
2022-09-21T20:44:45.129Z,72.96
2022-09-21T20:47:50.981Z,72.95
2022-09-21T20:50:54.100Z,73.16
2022-09-21T20:53:57.349Z,72.92
2022-09-21T20:57:00.080Z,73.11
2022-09-21T21:00:03.916Z,73.89
2022-09-21T21:03:07.983Z,74.10
2022-09-21T21:06:12.427Z,73.89
2022-09-21T21:09:15.061Z,74.71
2022-09-21T21:12:17.789Z,74.83
2022-09-21T21:15:20.527Z,74.43
2022-09-21T21:18:25.647Z,74.61
2022-09-21T21:21:28.408Z,75.77
2022-09-21T21:24:44.096Z,75.83
2022-09-21T21:27:46.720Z,76.67
2022-09-21T21:30:53.678Z,77.00
2022-09-21T21:33:58.004Z,77.31
2022-09-21T21:37:00.863Z,77.76
2022-09-21T21:40:03.858Z,77.37
2022-09-21T21:43:06.486Z,78.08
2022-09-21T21:46:09.515Z,78.02
2022-09-21T21:49:13.976Z,77.92
2022-09-21T21:52:16.482Z,77.85
2022-09-21T21:55:19.124Z,79.18
2022-09-21T21:58:21.937Z,78.90
2022-09-21T22:01:26.953Z,79.00
2022-09-21T22:04:30.973Z,78.78
2022-09-21T22:07:33.776Z,78.85
2022-09-21T22:10:36.376Z,79.28
2022-09-21T22:13:41.066Z,79.58
2022-09-21T22:16:43.684Z,79.83
2022-09-21T22:19:48.106Z,80.38
2022-09-21T22:22:50.622Z,80.82
2022-09-21T22:25:53.313Z,80.78
2022-09-21T22:29:03.065Z,81.19
2022-09-21T22:32:05.940Z,81.55
2022-09-21T22:35:10.280Z,82.27
2022-09-21T22:38:13.614Z,82.31
2022-09-21T22:41:17.910Z,82.97
2022-09-21T22:44:20.730Z,83.10
2022-09-21T22:47:23.337Z,82.91
2022-09-21T22:50:27.577Z,82.71
2022-09-21T22:53:31.449Z,82.20
2022-09-21T22:56:34.945Z,81.58
2022-09-21T22:59:37.537Z,82.21
2022-09-21T23:02:40.129Z,82.21
2022-09-21T23:05:44.183Z,82.74
2022-09-21T23:08:49.964Z,83.27
2022-09-21T23:11:53.827Z,83.58
2022-09-21T23:14:56.507Z,83.50
2022-09-21T23:17:59.323Z,83.95
2022-09-21T23:21:08.585Z,84.27
2022-09-21T23:24:11.814Z,84.36
2022-09-21T23:27:14.522Z,84.77
2022-09-21T23:30:17.172Z,84.78
2022-09-21T23:33:19.848Z,84.50
2022-09-21T23:36:26.062Z,84.51
2022-09-21T23:39:28.817Z,85.35
2022-09-21T23:42:31.543Z,85.66
2022-09-21T23:45:34.102Z,84.73
2022-09-21T23:48:37.047Z,85.24
2022-09-21T23:51:41.887Z,85.21
2022-09-21T23:54:45.317Z,85.36
2022-09-21T23:57:47.860Z,86.19
